Time;durP1;ratioP1;P1;durP2;ratioP2;P2;SDS_P1;SDS_P2;PMS_P1;PMS_P2;Temp;Humidity;BMP_temperature;BMP_pressure;BME280_temperature;BME280_humidity;BME280_pressure;Samples;Min_cycle;Max_cycle;Signal;HPM_P1;HPM_P2
2023/09/21 00:01:13;;;;;;;0.00;0.00;;;;;;;10.90;100.00;98421.25;4974505;28;20033;-77
2023/09/21 00:03:43;;;;;;;0.00;0.00;;;;;;;10.83;100.00;98408.03;4990067;28;20244;-77
2023/09/21 00:06:09;;;;;;;0.00;0.00;;;;;;;10.84;100.00;98415.13;4957426;28;20460;-78
2023/09/21 00:08:35;;;;;;;0.00;0.00;;;;;;;10.77;100.00;98406.56;4966378;28;20038;-79
2023/09/21 00:11:06;;;;;;;0.00;0.00;;;;;;;10.69;100.00;98404.59;4975980;28;20373;-79
2023/09/21 00:13:38;;;;;;;0.00;0.00;;;;;;;10.58;100.00;98393.16;4955561;28;20085;-79
2023/09/21 00:16:10;;;;;;;0.00;0.00;;;;;;;10.68;100.00;98419.41;4985836;28;20065;-80
2023/09/21 00:18:44;;;;;;;0.00;0.00;;;;;;;10.61;100.00;98415.19;4979486;28;20023;-80
2023/09/21 00:21:12;;;;;;;0.00;0.00;;;;;;;10.55;100.00;98421.13;4969444;28;20064;-77
2023/09/21 00:23:43;;;;;;;0.00;0.00;;;;;;;10.50;100.00;98419.34;4988124;28;20057;-77
2023/09/21 00:26:11;;;;;;;0.00;0.00;;;;;;;10.43;100.00;98414.31;4971412;28;20548;-82
2023/09/21 00:28:40;;;;;;;0.00;0.00;;;;;;;10.29;100.00;98400.72;4971430;28;20832;-79
2023/09/21 00:31:10;;;;;;;0.00;0.00;;;;;;;10.27;100.00;98416.59;4983026;28;20023;-79
2023/09/21 00:33:36;;;;;;;0.00;0.00;;;;;;;10.18;100.00;98418.47;4954709;28;20039;-76
2023/09/21 00:36:09;;;;;;;0.00;0.00;;;;;;;9.94;100.00;98395.06;4969663;28;20084;-78
2023/09/21 00:38:35;;;;;;;0.00;0.00;;;;;;;10.05;100.00;98419.38;4986228;28;20038;-78
2023/09/21 00:41:01;;;;;;;0.00;0.00;;;;;;;9.92;100.00;98413.66;4967653;28;20063;-77
2023/09/21 00:43:32;;;;;;;0.00;0.00;;;;;;;9.91;100.00;98414.75;4963093;28;20141;-77
2023/09/21 00:46:01;;;;;;;0.00;0.00;;;;;;;9.84;100.00;98417.16;4990635;28;20488;-78
2023/09/21 00:48:33;;;;;;;0.00;0.00;;;;;;;9.84;100.00;98417.16;4967301;28;20104;-78
2023/09/21 00:51:10;;;;;;;0.00;0.00;;;;;;;9.86;100.00;98428.56;4979335;28;20025;-78
2023/09/21 00:53:39;;;;;;;0.00;0.00;;;;;;;9.78;100.00;98415.63;4956457;28;20117;-78
2023/09/21 00:56:11;;;;;;;0.00;0.00;;;;;;;9.74;100.00;98409.22;4980867;28;20096;-77
2023/09/21 00:58:47;;;;;;;0.00;0.00;;;;;;;9.69;100.00;98406.59;4981172;28;20030;-78
2023/09/21 01:01:23;;;;;;;0.00;0.00;;;;;;;9.79;100.00;98428.19;4986938;28;20026;-78
2023/09/21 01:03:51;;;;;;;0.00;0.00;;;;;;;9.70;100.00;98408.22;4979409;28;21152;-78
2023/09/21 01:06:22;;;;;;;0.00;0.00;;;;;;;9.66;100.00;98401.75;4980439;28;20026;-78
2023/09/21 01:08:49;;;;;;;0.00;0.00;;;;;;;9.64;100.00;98410.25;4967150;28;20041;-77
2023/09/21 01:11:16;;;;;;;0.00;0.00;;;;;;;9.61;100.00;98406.19;4966641;28;20719;-77
2023/09/21 01:13:42;;;;;;;0.00;0.00;;;;;;;9.67;100.00;98425.19;4973614;28;20073;-77
2023/09/21 01:16:11;;;;;;;0.10;0.10;;;;;;;9.58;100.00;98415.00;4986549;28;20491;-77
2023/09/21 01:18:40;;;;;;;0.00;0.00;;;;;;;9.60;100.00;98423.69;4970548;28;20416;-79
2023/09/21 01:21:15;;;;;;;0.10;0.10;;;;;;;9.50;100.00;98404.03;4954409;28;20027;-79
2023/09/21 01:23:43;;;;;;;0.00;0.00;;;;;;;9.51;100.00;98416.56;4979481;28;20034;-78
2023/09/21 01:26:12;;;;;;;0.00;0.00;;;;;;;9.34;100.00;98396.19;4991870;28;20019;-79
2023/09/21 01:28:41;;;;;;;0.00;0.00;;;;;;;9.34;100.00;98400.84;4972348;28;20030;-79
2023/09/21 01:31:15;;;;;;;0.00;0.00;;;;;;;9.29;100.00;98390.84;4965336;28;20464;-79
2023/09/21 01:33:44;;;;;;;0.00;0.00;;;;;;;9.35;100.00;98397.00;4984747;28;20038;-79
2023/09/21 01:36:12;;;;;;;0.00;0.00;;;;;;;9.30;100.00;98395.19;4983322;28;20069;-79
2023/09/21 01:38:38;;;;;;;0.00;0.00;;;;;;;9.39;100.00;98404.25;4979544;28;20065;-77
2023/09/21 01:41:06;;;;;;;0.00;0.00;;;;;;;9.35;100.00;98391.53;4974473;28;20973;-78
2023/09/21 01:43:33;;;;;;;0.10;0.10;;;;;;;9.42;100.00;98391.94;4967814;28;20137;-78
2023/09/21 01:45:58;;;;;;;0.00;0.00;;;;;;;9.38;100.00;98380.81;4974558;28;20030;-78
2023/09/21 01:48:23;;;;;;;0.00;0.00;;;;;;;9.43;100.00;98388.06;4975583;28;20117;-78
2023/09/21 01:50:50;;;;;;;0.00;0.00;;;;;;;9.45;100.00;98391.31;4959421;28;20077;-77
2023/09/21 01:53:21;;;;;;;0.00;0.00;;;;;;;9.38;100.00;98385.47;4973303;28;20041;-79
2023/09/21 01:55:48;;;;;;;0.00;0.00;;;;;;;9.40;100.00;98402.31;4961866;28;20051;-76
2023/09/21 01:58:15;;;;;;;0.00;0.00;;;;;;;9.39;100.00;98392.56;4958799;28;20027;-77
2023/09/21 02:00:51;;;;;;;0.00;0.00;;;;;;;9.30;100.00;98378.84;4981403;28;20080;-76
2023/09/21 02:03:19;;;;;;;0.10;0.10;;;;;;;9.39;100.00;98392.56;4973190;28;20023;-77
2023/09/21 02:05:48;;;;;;;0.00;0.00;;;;;;;9.39;100.00;98389.81;4970599;28;20031;-77
2023/09/21 02:08:18;;;;;;;0.00;0.00;;;;;;;9.39;100.00;98387.09;4963172;28;20181;-77
2023/09/21 02:11:13;;;;;;;0.00;0.00;;;;;;;9.25;100.00;98362.56;4977602;28;20539;-79
2023/09/21 02:13:46;;;;;;;0.00;0.00;;;;;;;9.33;100.00;98372.75;4957369;28;20443;-77
2023/09/21 02:16:14;;;;;;;0.00;0.00;;;;;;;9.36;100.00;98382.22;4964274;28;20039;-77
2023/09/21 02:18:40;;;;;;;0.00;0.00;;;;;;;9.32;100.00;98378.53;4973964;28;20473;-76
2023/09/21 02:21:08;;;;;;;0.00;0.00;;;;;;;9.26;100.00;98383.28;4950993;28;20050;-77
2023/09/21 02:23:33;;;;;;;0.00;0.00;;;;;;;9.19;100.00;98377.44;4976166;28;20061;-77
2023/09/21 02:26:02;;;;;;;0.00;0.00;;;;;;;9.17;100.00;98379.66;4961561;28;20058;-76
2023/09/21 02:28:27;;;;;;;0.00;0.00;;;;;;;9.19;100.00;98394.59;4954539;28;20024;-75
2023/09/21 02:30:56;;;;;;;0.00;0.00;;;;;;;9.05;100.00;98383.75;4957996;28;20466;-77
2023/09/21 02:33:22;;;;;;;0.00;0.00;;;;;;;8.89;100.00;98366.91;4960918;28;20054;-77
2023/09/21 02:35:47;;;;;;;0.00;0.00;;;;;;;8.90;100.00;98376.66;4934475;28;20093;-76
2023/09/21 02:38:13;;;;;;;0.00;0.00;;;;;;;8.84;100.00;98355.28;4960430;28;20109;-77
2023/09/21 02:40:40;;;;;;;0.00;0.00;;;;;;;8.93;100.00;98377.19;4973646;28;20023;-78
2023/09/21 02:43:09;;;;;;;0.00;0.00;;;;;;;8.91;100.00;98378.28;4978191;28;20035;-78
2023/09/21 02:45:36;;;;;;;0.00;0.00;;;;;;;8.81;100.00;98373.06;4960902;28;20023;-77
2023/09/21 02:48:02;;;;;;;0.10;0.10;;;;;;;8.87;100.00;98382.72;4966829;28;20082;-76
2023/09/21 02:50:30;;;;;;;0.00;0.00;;;;;;;8.81;100.00;98373.06;4952832;28;20030;-78
2023/09/21 02:53:06;;;;;;;0.00;0.00;;;;;;;8.81;100.00;98375.78;4974027;28;20047;-78
2023/09/21 02:55:33;;;;;;;0.00;0.00;;;;;;;8.75;100.00;98379.72;4962396;28;20117;-77
2023/09/21 02:58:05;;;;;;;0.00;0.00;;;;;;;8.67;100.00;98375.81;4965081;28;20257;-77
2023/09/21 03:00:39;;;;;;;0.00;0.00;;;;;;;8.60;100.00;98371.84;4966625;28;20050;-77
2023/09/21 03:03:10;;;;;;;0.00;0.00;;;;;;;8.37;100.00;98341.78;4955826;28;20030;-77
2023/09/21 03:05:38;;;;;;;0.00;0.00;;;;;;;8.41;100.00;98359.13;4969148;28;20478;-78
2023/09/21 03:08:13;;;;;;;0.00;0.00;;;;;;;8.38;100.00;98355.09;4986613;28;20132;-78
2023/09/21 03:10:40;;;;;;;0.00;0.00;;;;;;;8.24;100.00;98343.38;4956156;28;20048;-79
2023/09/21 03:13:17;;;;;;;0.00;0.00;;;;;;;8.19;100.00;98336.13;4980153;28;20601;-79
2023/09/21 03:15:47;;;;;;;0.00;0.00;;;;;;;8.15;100.00;98335.09;4972557;28;20037;-79
2023/09/21 03:18:14;;;;;;;0.00;0.00;;;;;;;8.27;100.00;98361.84;4970928;28;20122;-79
2023/09/21 03:20:40;;;;;;;0.00;0.00;;;;;;;8.21;100.00;98361.13;4971553;28;20385;-79
2023/09/21 03:23:09;;;;;;;0.00;0.00;;;;;;;8.12;100.00;98345.75;4983941;28;20045;-80
2023/09/21 03:25:43;;;;;;;0.00;0.00;;;;;;;8.26;100.00;98364.84;4969609;28;20034;-79
2023/09/21 03:28:15;;;;;;;0.10;0.10;;;;;;;8.29;100.00;98372.41;4966302;28;20026;-79
2023/09/21 03:30:45;;;;;;;0.00;0.00;;;;;;;8.24;100.00;98369.81;4987475;28;20595;-79
2023/09/21 03:33:12;;;;;;;0.00;0.00;;;;;;;8.25;100.00;98371.41;4970300;28;20463;-79
2023/09/21 03:35:38;;;;;;;0.00;0.00;;;;;;;8.20;100.00;98364.94;4986138;28;20392;-79
2023/09/21 03:38:14;;;;;;;0.00;0.00;;;;;;;8.21;100.00;98357.59;4937976;28;20671;-78
2023/09/21 03:40:43;;;;;;;0.10;0.10;;;;;;;8.06;100.00;98331.47;4966604;28;20115;-78
2023/09/21 03:43:12;;;;;;;0.00;0.00;;;;;;;8.26;100.00;98351.25;4970150;28;20129;-79
2023/09/21 03:45:42;;;;;;;0.03;0.03;;;;;;;8.29;100.00;98356.09;4972695;28;20529;-78
2023/09/21 03:48:11;;;;;;;0.00;0.00;;;;;;;8.24;100.00;98358.91;4966667;28;20162;-79
2023/09/21 03:50:40;;;;;;;0.00;0.00;;;;;;;8.24;100.00;98358.91;4975727;28;20784;-79
2023/09/21 03:53:08;;;;;;;0.00;0.00;;;;;;;8.16;100.00;98347.63;4964831;28;20088;-79
2023/09/21 03:55:35;;;;;;;0.00;0.00;;;;;;;8.17;100.00;98365.53;4979013;28;20472;-79
2023/09/21 03:58:04;;;;;;;0.00;0.00;;;;;;;8.02;100.00;98341.34;4969418;28;20034;-80
2023/09/21 04:00:29;;;;;;;0.00;0.00;;;;;;;8.06;100.00;98347.81;4977137;28;20057;-78
2023/09/21 04:02:59;;;;;;;0.00;0.00;;;;;;;8.11;100.00;98355.84;4965882;28;20477;-78
2023/09/21 04:05:31;;;;;;;0.00;0.00;;;;;;;8.08;100.00;98353.75;4972680;28;20536;-77
2023/09/21 04:07:58;;;;;;;0.00;0.00;;;;;;;8.14;100.00;98360.69;4938489;28;20038;-78
2023/09/21 04:10:23;;;;;;;0.00;0.00;;;;;;;8.12;100.00;98362.94;4952734;28;20039;-78
2023/09/21 04:12:55;;;;;;;0.00;0.00;;;;;;;8.00;100.00;98346.25;4955670;28;20030;-78
2023/09/21 04:15:25;;;;;;;0.00;0.00;;;;;;;7.99;100.00;98361.78;4951708;28;20022;-78
2023/09/21 04:17:51;;;;;;;0.00;0.00;;;;;;;7.96;100.00;98358.88;4977026;28;20029;-78
2023/09/21 04:20:18;;;;;;;0.00;0.00;;;;;;;7.92;100.00;98358.66;4960834;28;20034;-78
2023/09/21 04:22:49;;;;;;;0.00;0.00;;;;;;;7.76;100.00;98325.44;4965594;28;20118;-79
2023/09/21 04:25:16;;;;;;;0.00;0.00;;;;;;;7.73;100.00;98334.22;4958322;28;20050;-78
2023/09/21 04:27:44;;;;;;;0.00;0.00;;;;;;;7.71;100.00;98328.28;4966690;28;20049;-78
2023/09/21 04:30:14;;;;;;;0.00;0.00;;;;;;;7.83;100.00;98355.81;4956495;28;20442;-79
2023/09/21 04:32:45;;;;;;;0.00;0.00;;;;;;;7.77;100.00;98351.56;4968811;28;20034;-78
2023/09/21 04:35:10;;;;;;;0.00;0.00;;;;;;;7.71;100.00;98343.78;4972362;28;20027;-78
2023/09/21 04:37:38;;;;;;;0.00;0.00;;;;;;;7.77;100.00;98351.56;4971502;28;20026;-78
2023/09/21 04:40:11;;;;;;;0.00;0.00;;;;;;;7.65;100.00;98332.16;4972215;28;20027;-80
2023/09/21 04:42:40;;;;;;;0.00;0.00;;;;;;;7.74;100.00;98344.00;4971005;28;20046;-79
2023/09/21 04:45:09;;;;;;;0.00;0.00;;;;;;;7.78;100.00;98357.81;4977435;28;20023;-79
2023/09/21 04:47:48;;;;;;;0.00;0.00;;;;;;;7.63;100.00;98337.09;4983481;28;20186;-81
2023/09/21 04:50:16;;;;;;;0.00;0.00;;;;;;;7.67;100.00;98329.97;4962121;28;20015;-78
2023/09/21 04:52:43;;;;;;;0.00;0.00;;;;;;;7.72;100.00;98329.88;4983646;28;20073;-79
2023/09/21 04:55:09;;;;;;;0.00;0.00;;;;;;;7.76;100.00;98339.06;4979157;28;20092;-79
2023/09/21 04:57:36;;;;;;;0.00;0.00;;;;;;;7.82;100.00;98347.94;4983587;28;20051;-79
2023/09/21 05:00:10;;;;;;;0.00;0.00;;;;;;;7.73;100.00;98347.03;4966613;28;20126;-80
2023/09/21 05:02:36;;;;;;;0.00;0.00;;;;;;;7.75;100.00;98356.47;4967132;28;20476;-78
2023/09/21 05:05:02;;;;;;;0.00;0.00;;;;;;;7.67;100.00;98346.28;4963114;28;20039;-79
2023/09/21 05:07:28;;;;;;;0.10;0.10;;;;;;;7.72;100.00;98362.50;4970212;28;20023;-79
2023/09/21 05:09:54;;;;;;;0.10;0.10;;;;;;;7.75;100.00;98361.91;4935307;28;20034;-78
2023/09/21 05:12:19;;;;;;;0.00;0.00;;;;;;;7.68;100.00;98348.72;4957371;28;20030;-77
2023/09/21 05:14:46;;;;;;;0.00;0.00;;;;;;;7.72;100.00;98357.06;4962054;28;20033;-77
2023/09/21 05:17:12;;;;;;;0.00;0.00;;;;;;;7.66;100.00;98359.06;4958817;28;20413;-76
2023/09/21 05:19:37;;;;;;;0.00;0.00;;;;;;;7.67;100.00;98362.63;4963743;28;20034;-77
2023/09/21 05:22:08;;;;;;;0.00;0.00;;;;;;;7.62;100.00;98357.25;4951622;28;20029;-78
2023/09/21 05:24:33;;;;;;;0.00;0.00;;;;;;;7.55;100.00;98359.53;4942269;28;20039;-78
2023/09/21 05:26:59;;;;;;;0.00;0.00;;;;;;;7.57;100.00;98370.94;4973310;28;20496;-79
2023/09/21 05:29:25;;;;;;;0.00;0.00;;;;;;;7.45;100.00;98353.16;4965196;28;20038;-78
2023/09/21 05:31:50;;;;;;;0.00;0.00;;;;;;;7.34;100.00;98340.81;4959567;28;20031;-78
2023/09/21 05:35:10;;;;;;;;;;;;;;;;;;;;;
2023/09/21 05:37:09;;;;;;;0.00;0.00;;;;;;;7.31;100.00;98355.00;4965653;28;20560;-80
2023/09/21 05:43:00;;;;;;;0.00;0.00;;;;;;;7.42;100.00;98361.91;4936589;28;20054;-80
2023/09/21 05:45:54;;;;;;;;;;;;;;;;;;;;;
2023/09/21 05:48:22;;;;;;;0.00;0.00;;;;;;;7.29;100.00;98335.47;4954934;28;20033;-79
2023/09/21 05:51:01;;;;;;;;;;;;;;;;;;;;;
2023/09/21 05:54:05;;;;;;;0.00;0.00;;;;;;;7.38;100.00;98350.00;4953783;28;20374;-80
2023/09/21 05:56:39;;;;;;;0.00;0.00;;;;;;;7.26;100.00;98341.50;4967454;28;20464;-77
2023/09/21 05:59:06;;;;;;;0.00;0.00;;;;;;;7.41;100.00;98365.72;4957273;28;20541;-78
2023/09/21 06:01:32;;;;;;;0.00;0.00;;;;;;;7.53;100.00;98375.34;4977010;28;20169;-78
2023/09/21 06:03:59;;;;;;;0.00;0.00;;;;;;;7.45;100.00;98366.75;4982729;28;20113;-77
2023/09/21 06:06:37;;;;;;;0.00;0.00;;;;;;;7.50;100.00;98377.56;4962096;28;20546;-79
2023/09/21 06:09:03;;;;;;;0.00;0.00;;;;;;;7.53;100.00;98378.06;4965700;28;20124;-78
2023/09/21 06:11:29;;;;;;;0.00;0.00;;;;;;;7.61;100.00;98388.28;4955061;28;20043;-77
2023/09/21 06:13:58;;;;;;;0.00;0.00;;;;;;;7.64;100.00;98377.63;4952627;28;20023;-77
2023/09/21 06:16:23;;;;;;;0.00;0.00;;;;;;;7.69;100.00;98387.59;4953654;28;20478;-77
2023/09/21 06:18:49;;;;;;;0.00;0.00;;;;;;;7.71;100.00;98377.25;4957146;28;20110;-78
2023/09/21 06:21:15;;;;;;;0.00;0.00;;;;;;;7.86;100.00;98393.31;4959975;28;20039;-77
2023/09/21 06:23:42;;;;;;;0.00;0.00;;;;;;;7.92;100.00;98390.50;4971518;28;20035;-77
2023/09/21 06:26:07;;;;;;;0.00;0.00;;;;;;;8.01;100.00;98394.16;4970144;28;20466;-76
2023/09/21 06:28:33;;;;;;;0.00;0.00;;;;;;;8.06;100.00;98402.25;4977479;28;20116;-77
2023/09/21 06:31:04;;;;;;;0.00;0.00;;;;;;;8.07;100.00;98390.22;4962950;28;20026;-77
2023/09/21 06:33:32;;;;;;;0.00;0.00;;;;;;;8.25;100.00;98404.91;4954314;28;20034;-76
2023/09/21 06:35:57;;;;;;;0.00;0.00;;;;;;;8.26;100.00;98394.81;4961285;28;20076;-76
2023/09/21 06:38:23;;;;;;;0.00;0.00;;;;;;;8.34;100.00;98392.19;4969492;28;20043;-78
2023/09/21 06:40:48;;;;;;;0.00;0.00;;;;;;;8.52;100.00;98412.31;4964722;28;20434;-75
2023/09/21 06:43:14;;;;;;;0.00;0.00;;;;;;;8.65;100.00;98413.44;4964174;28;20381;-79
2023/09/21 06:45:47;;;;;;;0.00;0.00;;;;;;;8.77;100.00;98399.31;4951120;28;20042;-82
2023/09/21 06:48:12;;;;;;;0.00;0.00;;;;;;;8.91;100.00;98389.19;4965306;28;20027;-77
2023/09/21 06:50:40;;;;;;;0.00;0.00;;;;;;;9.24;100.00;98408.16;4956846;28;20389;-77
2023/09/21 06:53:11;;;;;;;0.00;0.00;;;;;;;9.41;100.00;98406.69;4967729;28;20053;-78
2023/09/21 06:55:36;;;;;;;0.00;0.00;;;;;;;9.51;100.00;98387.34;4976840;28;20055;-79
2023/09/21 06:58:02;;;;;;;0.00;0.00;;;;;;;9.60;100.00;98371.84;4977862;28;20038;-81
2023/09/21 07:00:29;;;;;;;0.00;0.00;;;;;;;9.75;100.00;98375.31;4963089;28;20034;-81
2023/09/21 07:02:57;;;;;;;0.00;0.00;;;;;;;9.90;100.00;98380.41;4972530;28;20058;-81
2023/09/21 07:05:23;;;;;;;0.00;0.00;;;;;;;10.12;100.00;98395.16;4977642;28;20142;-83
2023/09/21 07:07:49;;;;;;;0.00;0.00;;;;;;;10.25;100.00;98388.81;4945728;28;20503;-82
2023/09/21 07:10:16;;;;;;;0.00;0.00;;;;;;;10.47;100.00;98403.56;4955580;28;20026;-82
2023/09/21 07:12:51;;;;;;;0.00;0.00;;;;;;;10.49;100.00;98374.00;4964560;28;20473;-73
2023/09/21 07:15:19;;;;;;;0.10;0.10;;;;;;;10.62;100.00;98378.53;4935531;28;20026;-74
2023/09/21 07:17:46;;;;;;;0.00;0.00;;;;;;;10.76;100.00;98372.13;4979800;28;20060;-73
2023/09/21 07:20:12;;;;;;;0.00;0.00;;;;;;;10.93;100.00;98369.44;4951219;28;20117;-73
2023/09/21 07:22:45;;;;;;;0.00;0.00;;;;;;;11.09;100.00;98369.00;4956180;28;20030;-73
2023/09/21 07:25:10;;;;;;;0.00;0.00;;;;;;;11.18;100.00;98350.66;4980005;28;20157;-74
2023/09/21 07:27:38;;;;;;;0.00;0.00;;;;;;;11.32;100.00;98351.31;4969943;28;20116;-74
2023/09/21 07:30:05;;;;;;;0.00;0.00;;;;;;;11.54;100.00;98374.19;4973169;28;20034;-73
2023/09/21 07:32:32;;;;;;;0.00;0.00;;;;;;;11.66;100.00;98377.06;4977295;28;20111;-74
2023/09/21 07:35:04;;;;;;;0.10;0.10;;;;;;;11.85;100.00;98389.63;4977812;28;20104;-74
2023/09/21 07:37:30;;;;;;;0.00;0.00;;;;;;;11.75;100.00;98363.38;4970223;28;20037;-74
2023/09/21 07:39:58;;;;;;;0.00;0.00;;;;;;;11.88;100.00;98378.00;4965027;28;20118;-74
2023/09/21 07:42:23;;;;;;;0.00;0.00;;;;;;;11.96;100.00;98390.94;4975613;28;20033;-74
2023/09/21 07:44:49;;;;;;;0.00;0.00;;;;;;;11.91;100.00;98382.03;4974754;28;20023;-74
2023/09/21 07:47:16;;;;;;;0.00;0.00;;;;;;;11.80;100.00;98371.44;4980088;28;20512;-74
2023/09/21 07:49:42;;;;;;;0.00;0.00;;;;;;;11.82;100.00;98369.16;4978471;28;20038;-74
2023/09/21 07:52:10;;;;;;;0.00;0.00;;;;;;;12.27;100.00;98378.94;4975832;28;20039;-74
2023/09/21 07:54:35;;;;;;;0.00;0.00;;;;;;;13.24;100.00;98377.31;4952070;28;20041;-73
2023/09/21 07:57:03;;;;;;;0.00;0.00;;;;;;;14.36;100.00;98381.31;4953057;28;20054;-74
2023/09/21 07:59:36;;;;;;;0.00;0.00;;;;;;;15.30;100.00;98403.59;4974244;28;20097;-73
2023/09/21 08:02:03;;;;;;;0.00;0.00;;;;;;;16.23;100.00;98395.25;4942042;28;20039;-73
2023/09/21 08:04:28;;;;;;;0.00;0.00;;;;;;;17.24;100.00;98399.69;4979217;28;20425;-74
2023/09/21 08:06:59;;;;;;;0.00;0.00;;;;;;;17.87;100.00;98420.81;4940578;28;20118;-73
2023/09/21 08:09:27;;;;;;;0.00;0.00;;;;;;;18.31;100.00;98409.44;4952848;28;20026;-73
2023/09/21 08:11:52;;;;;;;0.00;0.00;;;;;;;18.94;100.00;98399.06;4971756;28;20095;-75
2023/09/21 08:14:18;;;;;;;0.00;0.00;;;;;;;19.65;100.00;98412.34;4971227;28;20473;-74
2023/09/21 08:16:44;;;;;;;0.00;0.00;;;;;;;20.48;100.00;98420.84;4964231;28;20367;-74
2023/09/21 08:19:09;;;;;;;0.00;0.00;;;;;;;21.19;100.00;98406.00;4974730;28;20030;-74
2023/09/21 08:21:36;;;;;;;0.00;0.00;;;;;;;22.22;100.00;98423.59;4953332;28;20466;-74
2023/09/21 08:24:01;;;;;;;0.00;0.00;;;;;;;23.31;100.00;98420.53;4962965;28;20023;-73
2023/09/21 08:26:30;;;;;;;0.00;0.00;;;;;;;23.99;100.00;98418.78;4956952;28;20481;-73
2023/09/21 08:28:58;;;;;;;0.00;0.00;;;;;;;24.89;100.00;98413.44;4968821;28;20031;-74
2023/09/21 08:31:23;;;;;;;0.00;0.00;;;;;;;25.87;93.55;98418.88;4964212;28;20046;-72
2023/09/21 08:33:49;;;;;;;0.00;0.00;;;;;;;26.16;89.86;98432.56;4974367;28;20027;-73
2023/09/21 08:36:15;;;;;;;0.00;0.00;;;;;;;26.26;85.81;98426.03;4970425;28;20050;-73
2023/09/21 08:38:41;;;;;;;0.00;0.00;;;;;;;26.85;82.94;98429.59;4967391;28;20027;-73
2023/09/21 08:41:08;;;;;;;0.00;0.00;;;;;;;27.48;80.50;98430.94;4958702;28;20089;-74
2023/09/21 08:43:35;;;;;;;0.00;0.00;;;;;;;28.76;77.18;98425.13;4980066;28;20029;-73
2023/09/21 08:46:00;;;;;;;0.00;0.00;;;;;;;29.60;73.80;98416.97;4963422;28;20031;-73
2023/09/21 08:48:27;;;;;;;0.00;0.00;;;;;;;30.22;72.54;98410.38;4973324;28;20110;-74
2023/09/21 08:50:56;;;;;;;0.00;0.00;;;;;;;31.47;67.81;98402.72;4963240;28;20054;-74
2023/09/21 08:53:23;;;;;;;0.00;0.00;;;;;;;32.13;65.76;98390.66;4962438;28;20214;-73
2023/09/21 08:55:52;;;;;;;0.00;0.00;;;;;;;33.10;63.50;98391.63;4969559;28;20416;-74
2023/09/21 08:58:23;;;;;;;0.00;0.00;;;;;;;33.57;61.56;98407.44;4975411;28;20607;-74
2023/09/21 09:00:55;;;;;;;0.00;0.00;;;;;;;33.87;61.41;98399.22;4956753;28;20039;-73
2023/09/21 09:03:35;;;;;;;0.00;0.00;;;;;;;34.07;60.62;98381.72;4976225;28;20015;-74
2023/09/21 09:06:01;;;;;;;0.00;0.00;;;;;;;33.97;60.27;98382.22;4960175;28;20086;-74
2023/09/21 09:08:28;;;;;;;0.00;0.00;;;;;;;34.07;60.28;98395.88;4968023;28;20030;-75
2023/09/21 09:10:53;;;;;;;0.00;0.00;;;;;;;33.99;60.69;98396.69;4964666;28;20031;-74
2023/09/21 09:13:40;;;;;;;0.00;0.00;;;;;;;34.17;59.47;98396.66;4962081;28;20077;-73
2023/09/21 09:16:12;;;;;;;0.00;0.00;;;;;;;33.65;60.30;98382.38;4951794;28;20035;-73
2023/09/21 09:18:38;;;;;;;0.00;0.00;;;;;;;30.85;66.62;98396.75;4954023;28;20121;-73
2023/09/21 09:21:04;;;;;;;0.00;0.00;;;;;;;28.44;74.77;98387.28;4963696;28;20035;-73
2023/09/21 09:23:37;;;;;;;0.00;0.00;;;;;;;29.18;77.38;98380.25;4960617;28;20066;-73
2023/09/21 09:26:09;;;;;;;0.00;0.00;;;;;;;31.17;71.37;98389.28;4959261;28;20032;-72
2023/09/21 09:28:35;;;;;;;0.00;0.00;;;;;;;32.75;65.10;98385.44;4959303;28;20441;-73
2023/09/21 09:31:10;;;;;;;0.00;0.00;;;;;;;33.47;61.05;98380.38;4951556;28;20199;-73
2023/09/21 09:33:36;;;;;;;0.00;0.00;;;;;;;34.17;61.67;98390.97;4967705;28;20038;-73
2023/09/21 09:36:02;;;;;;;0.00;0.00;;;;;;;35.00;58.21;98369.97;4953853;28;20043;-73
2023/09/21 09:38:28;;;;;;;0.00;0.00;;;;;;;34.44;56.90;98390.09;4960487;28;20081;-73
2023/09/21 09:40:56;;;;;;;0.00;0.00;;;;;;;33.13;62.96;98384.25;4972102;28;20121;-73
2023/09/21 09:43:26;;;;;;;0.00;0.00;;;;;;;34.24;61.66;98389.84;4965521;28;20035;-73
2023/09/21 09:45:52;;;;;;;0.00;0.00;;;;;;;35.07;55.53;98388.69;4983214;28;20023;-73
2023/09/21 09:48:23;;;;;;;0.00;0.00;;;;;;;32.97;59.06;98379.66;4961181;28;20035;-73
2023/09/21 09:50:55;;;;;;;0.00;0.00;;;;;;;33.73;62.47;98380.81;4976581;28;20027;-73
2023/09/21 09:53:24;;;;;;;0.00;0.00;;;;;;;35.73;57.82;98373.50;4972610;28;20154;-73
2023/09/21 09:55:54;;;;;;;0.00;0.00;;;;;;;36.12;55.52;98381.19;4967184;28;20165;-72
2023/09/21 09:58:22;;;;;;;0.00;0.00;;;;;;;35.97;53.96;98379.13;4959071;28;20113;-73
2023/09/21 10:00:51;;;;;;;0.00;0.00;;;;;;;36.35;50.31;98371.00;4943845;28;20049;-72
2023/09/21 10:03:17;;;;;;;0.00;0.00;;;;;;;34.73;57.01;98365.22;4927407;28;20023;-73
2023/09/21 10:05:44;;;;;;;0.00;0.00;;;;;;;35.54;54.39;98353.00;4945671;28;20504;-72
2023/09/21 10:08:10;;;;;;;0.00;0.00;;;;;;;32.65;60.32;98361.94;4978683;28;20026;-72
2023/09/21 10:10:42;;;;;;;0.00;0.00;;;;;;;32.21;64.60;98345.91;4956757;28;20484;-73
2023/09/21 10:13:08;;;;;;;0.00;0.00;;;;;;;32.77;64.18;98358.25;4937787;28;20059;-73
2023/09/21 10:15:34;;;;;;;0.00;0.00;;;;;;;34.53;55.76;98363.75;4928581;28;20031;-73
2023/09/21 10:18:01;;;;;;;0.00;0.00;;;;;;;34.12;55.72;98342.63;4956040;28;20050;-73
2023/09/21 10:20:32;;;;;;;0.00;0.00;;;;;;;30.61;61.56;98352.00;4961115;28;20022;-73
2023/09/21 10:23:01;;;;;;;0.00;0.00;;;;;;;28.26;70.71;98340.72;4949196;28;20030;-72
2023/09/21 10:25:44;;;;;;;0.00;0.00;;;;;;;26.72;74.84;98347.31;4955276;28;20023;-73
2023/09/21 10:28:28;;;;;;;0.00;0.00;;;;;;;30.88;65.05;98339.41;4964005;28;20018;-73
2023/09/21 10:31:22;;;;;;;0.00;0.00;;;;;;;34.27;53.51;98335.03;4938276;28;20019;-72
2023/09/21 10:33:51;;;;;;;0.00;0.00;;;;;;;35.79;51.64;98342.34;4940556;28;20031;-73
2023/09/21 10:36:42;;;;;;;0.00;0.00;;;;;;;36.23;49.70;98346.44;4974081;28;20034;-72
2023/09/21 10:39:10;;;;;;;0.00;0.00;;;;;;;31.91;50.87;98339.00;4953716;28;20456;-73
2023/09/21 10:41:43;;;;;;;0.00;0.00;;;;;;;28.53;64.44;98328.41;4966270;28;20104;-74
2023/09/21 10:44:09;;;;;;;0.00;0.00;;;;;;;30.80;58.58;98327.59;4936837;28;20023;-74
2023/09/21 10:46:37;;;;;;;0.00;0.00;;;;;;;35.03;56.63;98331.31;4956399;28;20458;-74
2023/09/21 10:49:05;;;;;;;0.00;0.00;;;;;;;37.66;46.16;98325.03;4964443;28;20840;-74
2023/09/21 10:51:32;;;;;;;0.00;0.00;;;;;;;38.13;41.22;98299.25;4956172;28;20115;-72
2023/09/21 10:54:01;;;;;;;0.00;0.00;;;;;;;38.31;44.91;98321.72;4935489;28;20660;-72
2023/09/21 10:56:34;;;;;;;0.00;0.00;;;;;;;37.92;45.69;98312.84;4973602;28;20090;-75
2023/09/21 10:59:00;;;;;;;0.00;0.00;;;;;;;38.41;46.51;98319.47;4941886;28;20061;-73
2023/09/21 11:01:37;;;;;;;;;;;;;;;;;;;;;
2023/09/21 11:04:03;;;;;;;0.00;0.00;;;;;;;36.52;47.41;98288.69;4953287;28;20153;-72
2023/09/21 11:06:29;;;;;;;0.00;0.00;;;;;;;36.51;45.99;98316.38;4958271;28;20031;-72
2023/09/21 11:08:55;;;;;;;0.00;0.00;;;;;;;36.26;44.09;98322.69;4960938;28;20059;-74
2023/09/21 11:11:22;;;;;;;0.00;0.00;;;;;;;35.81;48.25;98332.06;4943395;28;20042;-73
2023/09/21 11:13:53;;;;;;;0.00;0.00;;;;;;;32.74;52.07;98302.59;4967825;28;20079;-74
2023/09/21 11:16:19;;;;;;;0.00;0.00;;;;;;;29.73;63.06;98310.78;4950331;28;20117;-73
2023/09/21 11:18:45;;;;;;;0.00;0.00;;;;;;;26.43;62.53;98308.50;4964468;28;20182;-74
2023/09/21 11:21:11;;;;;;;0.00;0.00;;;;;;;24.09;74.37;98305.47;4946624;28;20046;-76
2023/09/21 11:23:40;;;;;;;0.00;0.00;;;;;;;22.48;76.13;98306.31;4956292;28;20170;-73
2023/09/21 11:26:10;;;;;;;0.00;0.00;;;;;;;21.21;81.17;98292.47;4956853;28;20022;-73
2023/09/21 11:28:36;;;;;;;0.00;0.00;;;;;;;20.13;75.90;98306.31;4953913;28;20035;-72
2023/09/21 11:31:02;;;;;;;0.00;0.00;;;;;;;19.11;80.31;98299.97;4958697;28;20339;-74
2023/09/21 12:24:08;;;;;;;0.00;0.00;;;;;;;15.52;100.00;98292.91;5045302;23;20061;-73
2023/09/21 12:26:35;;;;;;;0.00;0.00;;;;;;;15.67;100.00;98310.63;4831761;29;20052;-74
2023/09/21 12:29:01;;;;;;;0.00;0.00;;;;;;;15.65;100.00;98295.59;4857048;29;20051;-73
2023/09/21 12:31:42;;;;;;;;;;;;;;;;;;;;;
2023/09/21 12:34:12;;;;;;;0.00;0.00;;;;;;;15.12;100.00;98304.75;4861600;29;20086;-74
2023/09/21 12:36:38;;;;;;;0.00;0.00;;;;;;;14.99;100.00;98314.97;4848371;29;20033;-73
2023/09/21 12:39:09;;;;;;;0.00;0.00;;;;;;;14.80;100.00;98318.34;4868877;29;20030;-74
2023/09/21 12:41:38;;;;;;;0.00;0.00;;;;;;;14.48;100.00;98309.84;4858462;29;20045;-74